createdAt,value
2019-02-12T00:00:26.891Z,100438.73
2019-02-12T00:01:00.080Z,100438.34
2019-02-12T00:01:31.389Z,100437.44
2019-02-12T00:02:02.825Z,100432.98
2019-02-12T00:02:33.993Z,100432.98
2019-02-12T00:03:05.234Z,100431.62
2019-02-12T00:03:36.463Z,100435.92
2019-02-12T00:04:07.669Z,100446.70
2019-02-12T00:04:38.939Z,100431.05
2019-02-12T00:05:10.142Z,100436.19
2019-02-12T00:05:41.371Z,100435.30
2019-02-12T00:06:12.541Z,100437.80
2019-02-12T00:06:43.797Z,100437.72
2019-02-12T00:07:15.005Z,100445.50
2019-02-12T00:07:46.243Z,100438.61
2019-02-12T00:08:17.461Z,100439.91
2019-02-12T00:08:48.689Z,100446.34
2019-02-12T00:09:19.873Z,100451.13
2019-02-12T00:09:51.083Z,100443.34
2019-02-12T00:10:22.278Z,100456.30
2019-02-12T00:10:53.513Z,100443.74
2019-02-12T00:11:24.727Z,100443.34
2019-02-12T00:11:55.933Z,100448.93
2019-02-12T00:12:27.123Z,100455.81
2019-02-12T00:12:58.470Z,100455.81
2019-02-12T00:13:29.702Z,100446.25
2019-02-12T00:14:00.941Z,100441.87
2019-02-12T00:14:32.132Z,100455.73
2019-02-12T00:15:04.772Z,100455.73
2019-02-12T00:15:37.151Z,100459.62
2019-02-12T00:16:08.612Z,100461.81
2019-02-12T00:16:39.810Z,100453.05
2019-02-12T00:17:11.049Z,100456.08
2019-02-12T00:17:42.338Z,100450.00
2019-02-12T00:18:13.580Z,100449.16
2019-02-12T00:18:44.779Z,100458.72
2019-02-12T00:19:16.031Z,100454.34
2019-02-12T00:19:47.314Z,100447.41
2019-02-12T00:20:18.574Z,100452.59
2019-02-12T00:20:49.790Z,100449.59
2019-02-12T00:21:21.084Z,100450.89
2019-02-12T00:21:52.259Z,100459.08
2019-02-12T00:22:23.511Z,100456.80
2019-02-12T00:22:54.715Z,100451.13
2019-02-12T00:23:25.954Z,100452.42
2019-02-12T00:23:57.120Z,100459.34
2019-02-12T00:24:28.359Z,100457.06
2019-02-12T00:24:59.532Z,100479.19
2019-02-12T00:25:30.773Z,100457.46
2019-02-12T00:26:01.953Z,100453.08
2019-02-12T00:26:33.203Z,100463.05
2019-02-12T00:27:04.428Z,100451.78
2019-02-12T00:27:35.727Z,100468.33
2019-02-12T00:28:06.992Z,100459.56
2019-02-12T00:28:38.272Z,100471.64
2019-02-12T00:29:09.573Z,100464.30
2019-02-12T00:29:40.837Z,100465.16
2019-02-12T00:30:12.245Z,100462.16
2019-02-12T00:30:43.539Z,100467.75
2019-02-12T00:31:14.849Z,100464.30
2019-02-12T00:31:46.129Z,100462.02
2019-02-12T00:32:17.567Z,100468.98
2019-02-12T00:32:48.745Z,100471.09
2019-02-12T00:33:19.986Z,100468.84
2019-02-12T00:33:51.179Z,100469.66
2019-02-12T00:34:22.413Z,100466.08
2019-02-12T00:34:53.593Z,100466.08
2019-02-12T00:35:24.947Z,100465.13
2019-02-12T00:35:56.139Z,100468.13
2019-02-12T00:36:28.369Z,100466.83
2019-02-12T00:36:59.563Z,100465.13
2019-02-12T00:37:30.825Z,100462.94
2019-02-12T00:38:02.021Z,100464.14
2019-02-12T00:38:33.275Z,100464.14
2019-02-12T00:39:04.652Z,100461.55
2019-02-12T00:39:37.822Z,100465.84
2019-02-12T00:40:09.093Z,100472.73
2019-02-12T00:40:40.348Z,100470.98
2019-02-12T00:41:11.769Z,100478.75
2019-02-12T00:41:43.006Z,100473.56
2019-02-12T00:42:14.224Z,100468.78
2019-02-12T00:42:45.497Z,100484.39
2019-02-12T00:43:16.823Z,100470.98
2019-02-12T00:43:48.176Z,100469.28
2019-02-12T00:44:19.518Z,100473.56
2019-02-12T00:44:50.816Z,100469.68
2019-02-12T00:45:22.103Z,100470.08
2019-02-12T00:45:53.408Z,100476.97
2019-02-12T00:46:24.647Z,100486.03
2019-02-12T00:46:55.961Z,100475.17
2019-02-12T00:47:27.284Z,100465.21
2019-02-12T00:47:58.450Z,100471.29
2019-02-12T00:48:29.678Z,100479.87
2019-02-12T00:49:00.858Z,100481.25
2019-02-12T00:49:32.085Z,100474.28
2019-02-12T00:50:07.771Z,100470.39
2019-02-12T00:50:39.136Z,100473.39
2019-02-12T00:51:17.618Z,100478.58
2019-02-12T00:51:43.474Z,100475.52
2019-02-12T00:52:14.705Z,100495.86
2019-02-12T00:52:45.971Z,100481.83
2019-02-12T00:53:17.191Z,100481.83
2019-02-12T00:53:48.453Z,100482.72
2019-02-12T00:54:19.635Z,100475.84
2019-02-12T00:54:50.887Z,100477.08
2019-02-12T00:55:22.071Z,100479.67
2019-02-12T00:55:53.319Z,100488.74
2019-02-12T00:56:24.517Z,100481.83
2019-02-12T00:56:55.738Z,100486.55
2019-02-12T00:57:26.952Z,100487.84
2019-02-12T00:57:58.235Z,100488.66
2019-02-12T00:58:29.535Z,100489.95
2019-02-12T00:59:00.818Z,100486.55
2019-02-12T00:59:32.103Z,100488.74
2019-02-12T01:00:12.255Z,100490.44
2019-02-12T01:00:43.512Z,100498.22
2019-02-12T01:01:14.783Z,100486.55
2019-02-12T01:01:46.085Z,100490.44
2019-02-12T01:02:17.341Z,100490.44
2019-02-12T01:02:48.610Z,100493.03
2019-02-12T01:03:19.858Z,100490.03
2019-02-12T01:03:51.054Z,100496.03
2019-02-12T01:04:22.271Z,100490.84
2019-02-12T01:04:53.488Z,100496.92
2019-02-12T01:05:24.721Z,100498.62
2019-02-12T01:05:55.912Z,100501.61
2019-02-12T01:06:27.154Z,100492.05
2019-02-12T01:06:58.539Z,100497.23
2019-02-12T01:07:29.764Z,100492.05
2019-02-12T01:08:00.956Z,100492.05
2019-02-12T01:08:32.221Z,100492.94
2019-02-12T01:09:03.974Z,100483.38
2019-02-12T01:09:36.230Z,100486.38
2019-02-12T01:10:09.720Z,100475.05
2019-02-12T01:10:40.928Z,100485.08
2019-02-12T01:11:12.122Z,100490.26
2019-02-12T01:11:43.372Z,100502.33
2019-02-12T01:12:14.586Z,100484.53
2019-02-12T01:12:45.814Z,100484.53
2019-02-12T01:13:17.012Z,100489.80
2019-02-12T01:13:48.234Z,100483.33
2019-02-12T01:14:19.446Z,100483.73
2019-02-12T01:14:50.770Z,100493.69
2019-02-12T01:15:21.948Z,100487.13
2019-02-12T01:15:53.184Z,100491.09
2019-02-12T01:16:24.400Z,100497.14
2019-02-12T01:16:55.728Z,100495.44
2019-02-12T01:17:26.910Z,100491.55
2019-02-12T01:17:58.159Z,100485.91
2019-02-12T01:18:29.400Z,100488.97
2019-02-12T01:19:00.622Z,100494.15
2019-02-12T01:19:31.819Z,100498.93
2019-02-12T01:20:07.053Z,100492.84
2019-02-12T01:20:38.252Z,100511.48
2019-02-12T01:21:09.485Z,100534.01
2019-02-12T01:21:40.676Z,100500.63
2019-02-12T01:22:12.191Z,100506.70
2019-02-12T01:22:43.387Z,100489.37
2019-02-12T01:23:14.659Z,100488.56
2019-02-12T01:23:45.889Z,100495.05
2019-02-12T01:24:17.164Z,100501.92
2019-02-12T01:24:48.319Z,100492.45
2019-02-12T01:25:19.574Z,100495.44
2019-02-12T01:25:50.827Z,100512.29
2019-02-12T01:26:22.077Z,100494.15
2019-02-12T01:26:53.262Z,100489.31
2019-02-12T01:27:24.522Z,100496.69
2019-02-12T01:27:55.730Z,100504.06
2019-02-12T01:28:26.911Z,100497.08
2019-02-12T01:28:58.155Z,100498.37
2019-02-12T01:29:29.458Z,100518.22
2019-02-12T01:30:02.873Z,100518.22
2019-02-12T01:30:34.201Z,100507.45
2019-02-12T01:31:05.424Z,100506.96
2019-02-12T01:31:36.633Z,100513.84
2019-02-12T01:32:07.835Z,100508.25
2019-02-12T01:32:39.312Z,100516.03
2019-02-12T01:33:10.570Z,100507.36
2019-02-12T01:33:42.843Z,100506.87
2019-02-12T01:34:14.058Z,100508.16
2019-02-12T01:34:45.290Z,100508.60
2019-02-12T01:35:16.493Z,100508.60
2019-02-12T01:35:47.704Z,100512.05
2019-02-12T01:36:18.936Z,100512.95
2019-02-12T01:36:50.130Z,100508.16
2019-02-12T01:37:21.328Z,100507.13
2019-02-12T01:37:52.597Z,100506.96
2019-02-12T01:38:23.776Z,100516.03
2019-02-12T01:38:55.007Z,100502.18
2019-02-12T01:39:26.221Z,100506.96
2019-02-12T01:39:57.448Z,100519.02
2019-02-12T01:40:28.653Z,100506.96
2019-02-12T01:40:59.923Z,100524.20
2019-02-12T01:41:31.071Z,100513.84
2019-02-12T01:42:02.320Z,100509.06
2019-02-12T01:42:33.591Z,100516.83
2019-02-12T01:43:04.867Z,100515.08
2019-02-12T01:43:36.057Z,100513.29
2019-02-12T01:44:07.291Z,100529.24
2019-02-12T01:44:38.459Z,100517.98
2019-02-12T01:45:10.884Z,100523.97
2019-02-12T01:45:42.188Z,100512.30
2019-02-12T01:46:13.511Z,100520.88
2019-02-12T01:46:44.704Z,100516.59
2019-02-12T01:47:16.972Z,100523.47
2019-02-12T01:47:48.175Z,100517.83
2019-02-12T01:48:19.417Z,100520.02
2019-02-12T01:48:50.571Z,100532.08
2019-02-12T01:49:21.820Z,100515.16
2019-02-12T01:49:52.981Z,100521.23
2019-02-12T01:50:24.227Z,100525.11
2019-02-12T01:50:55.399Z,100512.95
2019-02-12T01:51:34.789Z,100527.22
2019-02-12T01:51:59.714Z,100518.55
2019-02-12T01:52:30.974Z,100517.73
2019-02-12T01:53:02.176Z,100522.44
2019-02-12T01:53:33.376Z,100532.39
2019-02-12T01:54:04.562Z,100525.02
2019-02-12T01:54:35.745Z,100531.50
2019-02-12T01:55:07.027Z,100523.33
2019-02-12T01:55:38.224Z,100519.94
2019-02-12T01:56:09.433Z,100537.67
2019-02-12T01:56:40.618Z,100536.78
2019-02-12T01:57:11.836Z,100532.80
2019-02-12T01:57:43.049Z,100536.28
2019-02-12T01:58:14.272Z,100530.61
2019-02-12T01:58:45.450Z,100532.73
2019-02-12T01:59:16.674Z,100528.36
2019-02-12T01:59:47.876Z,100532.25
2019-02-12T02:00:19.123Z,100536.94
2019-02-12T02:00:50.308Z,100541.63
2019-02-12T02:01:21.549Z,100540.82
2019-02-12T02:01:52.754Z,100523.02
2019-02-12T02:02:23.995Z,100524.33
2019-02-12T02:02:55.178Z,100526.91
2019-02-12T02:03:26.468Z,100527.31
2019-02-12T02:03:57.747Z,100524.33
2019-02-12T02:04:29.034Z,100526.08
2019-02-12T02:05:00.340Z,100524.38
2019-02-12T02:05:31.715Z,100510.12
2019-02-12T02:06:02.960Z,100518.80
2019-02-12T02:06:34.280Z,100521.39
2019-02-12T02:07:05.565Z,100526.56
2019-02-12T02:07:36.846Z,100535.23
2019-02-12T02:08:08.105Z,100523.98
2019-02-12T02:08:39.359Z,100535.23
2019-02-12T02:09:10.583Z,100531.75
2019-02-12T02:09:41.817Z,100529.66
2019-02-12T02:10:15.479Z,100533.54
2019-02-12T02:10:46.743Z,100532.25
2019-02-12T02:11:17.939Z,100529.25
2019-02-12T02:11:49.175Z,100524.87
2019-02-12T02:12:20.346Z,100532.25
2019-02-12T02:12:51.583Z,100538.72
2019-02-12T02:13:22.803Z,100552.97
2019-02-12T02:13:54.077Z,100535.23
2019-02-12T02:14:25.359Z,100544.22
2019-02-12T02:14:56.656Z,100535.64
2019-02-12T02:15:28.143Z,100536.44
2019-02-12T02:15:59.394Z,100534.74
2019-02-12T02:16:30.677Z,100540.33
2019-02-12T02:17:01.994Z,100542.06
2019-02-12T02:17:33.277Z,100536.78
2019-02-12T02:18:04.546Z,100534.09
2019-02-12T02:18:35.777Z,100540.98
2019-02-12T02:19:06.968Z,100562.60
2019-02-12T02:19:38.217Z,100537.34
2019-02-12T02:20:13.595Z,100544.41
2019-02-12T02:20:44.902Z,100542.22
2019-02-12T02:21:16.067Z,100536.45
2019-02-12T02:21:47.316Z,100531.27
2019-02-12T02:22:18.503Z,100535.98
2019-02-12T02:22:49.749Z,100542.47
2019-02-12T02:23:20.966Z,100540.73
2019-02-12T02:23:52.220Z,100548.94
2019-02-12T02:24:23.442Z,100549.41
2019-02-12T02:24:54.702Z,100537.28
2019-02-12T02:25:25.872Z,100536.79
2019-02-12T02:25:57.080Z,100548.45
2019-02-12T02:26:28.262Z,100543.27
2019-02-12T02:26:59.552Z,100539.88
2019-02-12T02:27:30.784Z,100538.58
2019-02-12T02:28:02.021Z,100541.17
2019-02-12T02:28:33.225Z,100540.27
2019-02-12T02:29:04.434Z,100554.12
2019-02-12T02:29:35.646Z,100557.17
2019-02-12T02:30:10.044Z,100537.74
2019-02-12T02:30:41.317Z,100566.64
2019-02-12T02:31:12.583Z,100547.70
2019-02-12T02:31:43.800Z,100540.33
2019-02-12T02:32:15.046Z,100550.23
2019-02-12T02:32:46.300Z,100554.58
2019-02-12T02:33:17.514Z,100551.09
2019-02-12T02:33:48.719Z,100546.35
2019-02-12T02:34:19.911Z,100558.31
2019-02-12T02:34:51.129Z,100554.92
2019-02-12T02:35:22.346Z,100542.37
2019-02-12T02:35:53.542Z,100548.45
2019-02-12T02:36:24.763Z,100557.52
2019-02-12T02:36:55.985Z,100550.55
2019-02-12T02:37:27.167Z,100547.46
2019-02-12T02:37:58.373Z,100547.95
2019-02-12T02:38:29.676Z,100558.31
2019-02-12T02:39:00.871Z,100565.28
2019-02-12T02:39:32.125Z,100553.53
2019-02-12T02:40:06.503Z,100552.24
2019-02-12T02:40:37.729Z,100552.24
2019-02-12T02:41:09.189Z,100547.95
2019-02-12T02:41:40.433Z,100554.43
2019-02-12T02:42:11.627Z,100556.22
2019-02-12T02:42:42.868Z,100548.85
2019-02-12T02:43:14.042Z,100552.83
2019-02-12T02:43:45.310Z,100557.52
2019-02-12T02:44:16.516Z,100550.23
2019-02-12T02:44:47.805Z,100551.94
2019-02-12T02:45:19.003Z,100558.01
2019-02-12T02:45:50.258Z,100555.87
2019-02-12T02:46:21.457Z,100556.77
2019-02-12T02:46:52.726Z,100553.29
2019-02-12T02:47:23.930Z,100563.34
2019-02-12T02:47:55.158Z,100562.94
2019-02-12T02:48:26.337Z,100577.09
2019-02-12T02:48:57.594Z,100557.67
2019-02-12T02:49:28.872Z,100562.84
2019-02-12T02:50:00.310Z,100567.14
2019-02-12T02:50:31.512Z,100564.55
2019-02-12T02:51:02.754Z,100564.55
2019-02-12T02:51:33.915Z,100557.17
2019-02-12T02:52:05.172Z,100564.95
2019-02-12T02:52:36.372Z,100565.84
2019-02-12T02:53:07.635Z,100553.69
2019-02-12T02:53:39.112Z,100574.91
2019-02-12T02:54:10.353Z,100572.72
2019-02-12T02:54:41.541Z,100568.83
2019-02-12T02:55:12.807Z,100565.78
2019-02-12T02:55:43.994Z,100567.53
2019-02-12T02:56:15.237Z,100564.48
2019-02-12T02:56:46.422Z,100561.89
2019-02-12T02:57:17.668Z,100567.08
2019-02-12T02:57:48.847Z,100571.42
2019-02-12T02:58:20.064Z,100575.31
2019-02-12T02:58:51.279Z,100580.58
2019-02-12T02:59:23.474Z,100570.13
2019-02-12T02:59:54.722Z,100565.44
2019-02-12T03:00:25.963Z,100572.81
2019-02-12T03:00:57.184Z,100581.48
2019-02-12T03:01:28.395Z,100575.90
2019-02-12T03:01:59.600Z,100576.36
2019-02-12T03:02:30.849Z,100575.49
2019-02-12T03:03:02.391Z,100572.41
2019-02-12T03:03:33.721Z,100574.20
2019-02-12T03:04:04.955Z,100578.55
2019-02-12T03:04:36.242Z,100573.77
2019-02-12T03:05:09.900Z,100572.96
2019-02-12T03:05:41.085Z,100573.36
2019-02-12T03:06:12.377Z,100576.45
2019-02-12T03:06:43.682Z,100572.16
2019-02-12T03:07:14.929Z,100576.45
2019-02-12T03:07:46.111Z,100572.56
2019-02-12T03:08:17.369Z,100584.72
2019-02-12T03:08:49.556Z,100581.73
2019-02-12T03:09:20.793Z,100580.83
2019-02-12T03:09:51.970Z,100587.80
2019-02-12T03:10:24.229Z,100577.84
2019-02-12T03:10:55.418Z,100581.33
2019-02-12T03:11:26.757Z,100582.63
2019-02-12T03:11:58.054Z,100583.02
2019-02-12T03:12:29.286Z,100599.46
2019-02-12T03:13:00.474Z,100584.38
2019-02-12T03:13:31.723Z,100594.44
2019-02-12T03:14:02.930Z,100599.22
2019-02-12T03:14:34.197Z,100625.12
2019-02-12T03:15:08.770Z,100627.37
2019-02-12T03:15:40.093Z,100602.85
2019-02-12T03:16:11.639Z,100587.86
2019-02-12T03:16:42.941Z,100582.77
2019-02-12T03:17:14.242Z,100582.77
2019-02-12T03:17:45.514Z,100605.29
2019-02-12T03:18:16.790Z,100610.07
2019-02-12T03:18:48.078Z,100597.17
2019-02-12T03:19:19.325Z,100595.88
2019-02-12T03:19:50.523Z,100592.98
2019-02-12T03:20:21.770Z,100595.56
2019-02-12T03:20:52.952Z,100597.81
2019-02-12T03:21:24.191Z,100598.31
2019-02-12T03:22:03.395Z,100588.84
2019-02-12T03:22:28.518Z,100591.52
2019-02-12T03:22:59.793Z,100602.78
2019-02-12T03:23:31.028Z,100602.78
2019-02-12T03:24:02.275Z,100609.72
2019-02-12T03:24:33.529Z,100606.73
2019-02-12T03:25:07.666Z,100603.83
2019-02-12T03:25:38.980Z,100599.95
2019-02-12T03:26:10.153Z,100604.63
2019-02-12T03:26:41.647Z,100617.74
2019-02-12T03:27:12.822Z,100612.16
2019-02-12T03:27:44.033Z,100647.55
2019-02-12T03:28:15.251Z,100600.98
2019-02-12T03:28:46.576Z,100614.50
2019-02-12T03:29:17.812Z,100611.91
2019-02-12T03:29:49.007Z,100597.66
2019-02-12T03:30:20.214Z,100635.33
2019-02-12T03:30:51.550Z,100610.30
2019-02-12T03:31:22.750Z,100611.20
2019-02-12T03:31:54.063Z,100627.16
2019-02-12T03:32:25.293Z,100601.72
2019-02-12T03:32:56.587Z,100614.69
2019-02-12T03:33:27.782Z,100638.08
2019-02-12T03:33:59.011Z,100636.87
2019-02-12T03:34:30.440Z,100623.51
2019-02-12T03:35:01.846Z,100636.53
2019-02-12T03:35:33.066Z,100633.05
2019-02-12T03:36:04.298Z,100613.29
2019-02-12T03:36:35.493Z,100631.03
2019-02-12T03:37:06.726Z,100635.82
2019-02-12T03:37:37.938Z,100624.16
2019-02-12T03:38:09.316Z,100622.45
2019-02-12T03:38:40.547Z,100609.05
2019-02-12T03:39:11.769Z,100654.52
2019-02-12T03:39:42.964Z,100617.91
2019-02-12T03:40:14.188Z,100623.99
2019-02-12T03:40:45.506Z,100646.44
2019-02-12T03:41:16.716Z,100636.12
2019-02-12T03:41:47.932Z,100645.69
2019-02-12T03:42:19.154Z,100631.02
2019-02-12T03:42:50.355Z,100622.35
2019-02-12T03:43:21.676Z,100627.94
2019-02-12T03:43:52.888Z,100619.36
2019-02-12T03:44:24.134Z,100626.24
2019-02-12T03:44:55.322Z,100628.43
2019-02-12T03:45:26.572Z,100636.12
2019-02-12T03:45:57.777Z,100648.69
2019-02-12T03:46:29.035Z,100623.64
2019-02-12T03:47:00.233Z,100645.59
2019-02-12T03:47:31.442Z,100648.19
2019-02-12T03:48:02.672Z,100628.28
2019-02-12T03:48:33.858Z,100627.44
2019-02-12T03:49:05.075Z,100614.02
2019-02-12T03:49:36.283Z,100639.95
2019-02-12T03:50:10.091Z,100623.99
2019-02-12T03:50:41.625Z,100653.31
2019-02-12T03:51:12.833Z,100630.78
2019-02-12T03:51:44.047Z,100640.75
2019-02-12T03:52:16.258Z,100647.23
2019-02-12T03:52:47.446Z,100629.58
2019-02-12T03:53:18.649Z,100645.05
2019-02-12T03:53:49.862Z,100646.34
2019-02-12T03:54:21.078Z,100632.48
2019-02-12T03:54:52.257Z,100633.28
2019-02-12T03:55:23.425Z,100650.63
2019-02-12T03:55:54.698Z,100634.67
2019-02-12T03:56:25.901Z,100646.25
2019-02-12T03:56:57.136Z,100629.00
2019-02-12T03:57:28.318Z,100635.48
2019-02-12T03:57:59.564Z,100633.28
2019-02-12T03:58:30.772Z,100643.20
2019-02-12T03:59:02.025Z,100639.31
2019-02-12T03:59:33.250Z,100641.00
2019-02-12T04:00:12.052Z,100640.52
2019-02-12T04:00:43.282Z,100638.81
2019-02-12T04:01:14.501Z,100635.33
2019-02-12T04:01:45.700Z,100633.53
2019-02-12T04:02:16.940Z,100638.32
2019-02-12T04:03:00.626Z,100643.50
2019-02-12T04:03:31.827Z,100635.73
2019-02-12T04:04:03.099Z,100645.55
2019-02-12T04:04:34.315Z,100644.30
2019-02-12T04:05:06.499Z,100655.92
2019-02-12T04:05:37.849Z,100663.30
2019-02-12T04:06:09.082Z,100635.58
2019-02-12T04:06:40.345Z,100639.47
2019-02-12T04:07:11.527Z,100637.77
2019-02-12T04:07:42.781Z,100628.60
2019-02-12T04:08:13.944Z,100646.34
2019-02-12T04:08:45.208Z,100659.31
2019-02-12T04:09:16.378Z,100637.77
2019-02-12T04:09:47.617Z,100625.20
2019-02-12T04:10:18.925Z,100648.14
2019-02-12T04:10:50.181Z,100630.80
2019-02-12T04:11:21.491Z,100640.27
2019-02-12T04:11:52.741Z,100640.27
2019-02-12T04:12:23.917Z,100630.39
2019-02-12T04:12:55.178Z,100648.54
2019-02-12T04:13:26.449Z,100637.27
2019-02-12T04:13:57.683Z,100628.60
2019-02-12T04:14:28.882Z,100655.92
2019-02-12T04:15:00.265Z,100657.27
2019-02-12T04:15:31.629Z,100652.92
2019-02-12T04:16:03.857Z,100638.57
2019-02-12T04:16:35.036Z,100647.73
2019-02-12T04:17:06.269Z,100647.73
2019-02-12T04:17:37.456Z,100643.36
2019-02-12T04:18:08.760Z,100638.66
2019-02-12T04:18:39.950Z,100643.36
2019-02-12T04:19:11.187Z,100650.79
2019-02-12T04:19:42.449Z,100651.19
2019-02-12T04:20:13.705Z,100650.33
2019-02-12T04:20:44.905Z,100658.97
2019-02-12T04:21:16.143Z,100639.47
2019-02-12T04:21:47.338Z,100639.47
2019-02-12T04:22:22.431Z,100649.34
2019-02-12T04:22:51.668Z,100650.73
2019-02-12T04:23:22.856Z,100653.33
2019-02-12T04:23:54.090Z,100655.52
2019-02-12T04:24:25.282Z,100653.33
2019-02-12T04:24:56.522Z,100645.61
2019-02-12T04:25:27.781Z,100649.50
2019-02-12T04:25:59.030Z,100652.58
2019-02-12T04:26:30.259Z,100646.59
2019-02-12T04:27:01.560Z,100635.33
2019-02-12T04:27:32.857Z,100660.91
2019-02-12T04:28:04.151Z,100658.75
2019-02-12T04:28:36.626Z,100652.27
2019-02-12T04:29:07.932Z,100654.92
2019-02-12T04:29:39.209Z,100649.24
2019-02-12T04:30:10.468Z,100647.23
2019-02-12T04:30:41.753Z,100659.80
2019-02-12T04:31:12.982Z,100655.42
2019-02-12T04:31:44.163Z,100669.77
2019-02-12T04:32:15.404Z,100653.38
2019-02-12T04:32:46.592Z,100658.16
2019-02-12T04:33:17.813Z,100633.23
2019-02-12T04:33:48.999Z,100656.95
2019-02-12T04:34:20.247Z,100660.35
2019-02-12T04:34:51.475Z,100666.83
2019-02-12T04:35:22.760Z,100657.36
2019-02-12T04:35:54.043Z,100660.35
2019-02-12T04:36:25.361Z,100668.13
2019-02-12T04:36:56.647Z,100662.95
2019-02-12T04:37:27.923Z,100653.81
2019-02-12T04:37:59.194Z,100663.75
2019-02-12T04:38:30.487Z,100670.67
2019-02-12T04:39:01.768Z,100663.69
2019-02-12T04:39:33.047Z,100661.90
2019-02-12T04:40:08.635Z,100676.66
2019-02-12T04:40:39.801Z,100668.78
2019-02-12T04:41:11.047Z,100671.87
2019-02-12T04:41:42.296Z,100690.82
2019-02-12T04:42:13.540Z,100681.34
2019-02-12T04:42:44.770Z,100674.37
2019-02-12T04:43:16.081Z,100689.53
2019-02-12T04:43:47.253Z,100689.62
2019-02-12T04:44:18.502Z,100679.65
2019-02-12T04:44:49.693Z,100686.53
2019-02-12T04:45:20.938Z,100676.56
2019-02-12T04:45:52.117Z,100683.94
2019-02-12T04:46:23.350Z,100663.59
2019-02-12T04:46:54.557Z,100675.67
2019-02-12T04:47:25.834Z,100673.08
2019-02-12T04:47:57.102Z,100687.73
2019-02-12T04:48:28.364Z,100681.25
2019-02-12T04:48:59.631Z,100673.88
2019-02-12T04:49:30.899Z,100682.09
2019-02-12T04:50:05.548Z,100692.46
2019-02-12T04:50:37.817Z,100684.68
2019-02-12T04:51:09.342Z,100701.53
2019-02-12T04:51:40.618Z,100691.56
2019-02-12T04:52:12.203Z,100692.77
2019-02-12T04:52:43.507Z,100698.75
2019-02-12T04:53:14.786Z,100690.08
2019-02-12T04:53:46.103Z,100687.92
2019-02-12T04:54:17.465Z,100703.05
2019-02-12T04:54:48.745Z,100674.96
2019-02-12T04:55:19.987Z,100694.81
2019-02-12T04:55:51.161Z,100682.25
2019-02-12T04:56:22.432Z,100694.71
2019-02-12T04:56:53.622Z,100706.78
2019-02-12T04:57:24.857Z,100680.36
2019-02-12T04:57:56.031Z,100695.05
2019-02-12T04:58:27.265Z,100719.69
2019-02-12T04:58:58.461Z,100706.28
2019-02-12T04:59:29.753Z,100701.94
2019-02-12T05:00:00.917Z,100713.20
2019-02-12T05:00:32.221Z,100701.94
2019-02-12T05:01:03.558Z,100690.73
2019-02-12T05:01:34.827Z,100696.35
2019-02-12T05:02:06.003Z,100722.67
2019-02-12T05:02:37.248Z,100705.33
2019-02-12T05:03:08.440Z,100702.73
2019-02-12T05:03:39.665Z,100692.77
2019-02-12T05:04:10.924Z,100702.73
2019-02-12T05:04:42.327Z,100701.34
2019-02-12T05:05:13.542Z,100708.81
2019-02-12T05:05:44.750Z,100713.11
2019-02-12T05:06:15.964Z,100701.84
2019-02-12T05:06:47.188Z,100706.62
2019-02-12T05:07:18.425Z,100704.44
2019-02-12T05:07:49.654Z,100710.91
2019-02-12T05:08:20.921Z,100712.11
2019-02-12T05:09:14.304Z,100712.52
2019-02-12T05:09:47.133Z,100709.13
2019-02-12T05:10:32.956Z,100707.77
2019-02-12T05:11:04.660Z,100712.52
2019-02-12T05:11:36.087Z,100715.95
2019-02-12T05:12:07.293Z,100715.95
2019-02-12T05:12:38.554Z,100708.97
2019-02-12T05:13:09.750Z,100701.84
2019-02-12T05:13:40.992Z,100722.33
2019-02-12T05:14:12.266Z,100702.80
2019-02-12T05:14:43.462Z,100714.00
2019-02-12T05:15:14.673Z,100717.39
2019-02-12T05:15:45.875Z,100706.22
2019-02-12T05:16:17.090Z,100708.31
2019-02-12T05:16:48.318Z,100718.99
2019-02-12T05:17:19.518Z,100701.28
2019-02-12T05:17:50.747Z,100714.23
2019-02-12T05:18:21.965Z,100713.34
2019-02-12T05:18:53.209Z,100705.97
2019-02-12T05:19:24.443Z,100708.96
2019-02-12T05:19:55.621Z,100721.92
2019-02-12T05:20:27.837Z,100712.45
2019-02-12T05:20:59.065Z,100714.64
2019-02-12T05:21:30.370Z,100708.87
2019-02-12T05:22:01.623Z,100708.87
2019-02-12T05:22:42.859Z,100715.75
2019-02-12T05:23:05.991Z,100704.98
2019-02-12T05:23:37.219Z,100712.75
2019-02-12T05:24:08.747Z,100721.83
2019-02-12T05:24:40.007Z,100713.16
2019-02-12T05:25:12.406Z,100711.06
2019-02-12T05:25:43.630Z,100711.06
2019-02-12T05:26:14.807Z,100704.48
2019-02-12T05:26:46.090Z,100700.13
2019-02-12T05:27:17.251Z,100714.39
2019-02-12T05:27:48.515Z,100713.49
2019-02-12T05:28:19.686Z,100708.80
2019-02-12T05:28:51.057Z,100701.83
2019-02-12T05:29:22.241Z,100719.17
2019-02-12T05:29:53.482Z,100730.34
2019-02-12T05:30:24.694Z,100719.08
2019-02-12T05:30:56.000Z,100731.14
2019-02-12T05:31:27.360Z,100732.84
2019-02-12T05:31:58.643Z,100718.98
2019-02-12T05:32:29.916Z,100715.09
2019-02-12T05:33:01.206Z,100726.30
2019-02-12T05:33:32.501Z,100723.70
2019-02-12T05:34:03.765Z,100721.11
2019-02-12T05:34:35.132Z,100719.32
2019-02-12T05:35:06.403Z,100724.50
2019-02-12T05:35:37.660Z,100723.20
2019-02-12T05:36:08.938Z,100723.20
2019-02-12T05:36:40.183Z,100720.67
2019-02-12T05:37:11.336Z,100733.58
2019-02-12T05:37:42.971Z,100750.92
2019-02-12T05:38:14.165Z,100712.65
2019-02-12T05:38:45.636Z,100729.34
2019-02-12T05:39:16.807Z,100729.75
2019-02-12T05:39:48.061Z,100720.22
2019-02-12T05:40:19.235Z,100730.19
2019-02-12T05:40:50.464Z,100728.45
2019-02-12T05:41:21.637Z,100730.64
2019-02-12T05:41:52.874Z,100730.64
2019-02-12T05:42:24.064Z,100726.45
2019-02-12T05:42:55.385Z,100735.92
2019-02-12T05:43:26.593Z,100728.95
2019-02-12T05:43:57.840Z,100733.33
2019-02-12T05:44:29.134Z,100725.95
2019-02-12T05:45:00.432Z,100733.73
2019-02-12T05:45:31.647Z,100733.73
2019-02-12T05:46:02.904Z,100739.41
2019-02-12T05:46:34.069Z,100740.70
2019-02-12T05:47:06.961Z,100735.83
2019-02-12T05:47:38.284Z,100753.97
2019-02-12T05:48:09.581Z,100736.23
2019-02-12T05:48:40.762Z,100743.61
2019-02-12T05:49:12.041Z,100742.25
2019-02-12T05:49:43.278Z,100752.61
2019-02-12T05:50:16.325Z,100756.00
2019-02-12T05:50:47.558Z,100750.82
2019-02-12T05:51:18.841Z,100756.00
2019-02-12T05:51:50.120Z,100758.89
2019-02-12T05:52:21.367Z,100751.95
2019-02-12T05:52:54.833Z,100744.58
2019-02-12T05:53:25.839Z,100761.83
2019-02-12T05:53:57.129Z,100744.88
2019-02-12T05:54:29.506Z,100751.86
2019-02-12T05:55:00.804Z,100759.14
2019-02-12T05:55:32.094Z,100758.23
2019-02-12T05:56:03.342Z,100755.19
2019-02-12T05:56:34.516Z,100750.41
2019-02-12T05:57:05.775Z,100756.05
2019-02-12T05:57:36.942Z,100753.06
2019-02-12T05:58:08.202Z,100753.30
2019-02-12T05:58:39.399Z,100749.56
2019-02-12T05:59:10.638Z,100752.16